CPX781 Details

Departure: Taiwan Taoyuan International Airport (RCTP)
Arrival: Incheon International Airport (RKSI)
Route: PIANO1C PIANO L3 SALMI B576 SEL SEL1T


Current Weather Information
RCTP 232230Z 11010KT 9999 FEW020 26/22 Q1012 NOSIG RMK A2989
RKSI 232230Z 14006KT 5000 HZ NSC 19/13 Q1011 NOSIG